Time;durP1;ratioP1;P1;durP2;ratioP2;P2;SDS_P1;SDS_P2;PMS_P1;PMS_P2;Temp;Humidity;BMP_temperature;BMP_pressure;BME280_temperature;BME280_humidity;BME280_pressure;Samples;Min_cycle;Max_cycle;Signal;HPM_P1;HPM_P2
2022/01/24 00:02:54;;;;;;;13.60;10.55;;;;;;;5.91;100.00;103541.47;10512509;28;20119;-76
2022/01/24 00:07:55;;;;;;;12.15;9.95;;;;;;;5.88;100.00;103531.78;10504738;28;20029;-76
2022/01/24 00:18:07;;;;;;;10.85;9.77;;;;;;;5.88;100.00;103542.53;10502428;28;20037;-76
2022/01/24 00:28:26;;;;;;;11.27;9.82;;;;;;;5.91;100.00;103517.25;10503377;28;20387;-76
2022/01/24 00:33:27;;;;;;;12.38;10.65;;;;;;;5.87;100.00;103523.78;10503805;28;20033;-76
2022/01/24 00:38:27;;;;;;;14.02;10.10;;;;;;;5.90;100.00;103520.91;10502901;28;20037;-76
2022/01/24 00:43:39;;;;;;;14.55;12.25;;;;;;;5.90;100.00;103519.06;10501316;28;20473;-76
2022/01/24 00:58:49;;;;;;;12.40;10.93;;;;;;;5.86;100.00;103525.63;10503897;28;20032;-76
2022/01/24 01:03:49;;;;;;;17.48;11.95;;;;;;;5.87;100.00;103522.00;10502147;28;20033;-76
2022/01/24 01:19:28;;;;;;;18.20;14.05;;;;;;;5.93;100.00;103518.03;10500602;28;20115;-76
2022/01/24 01:24:31;;;;;;;18.27;13.38;;;;;;;5.97;100.00;103523.13;10501065;28;20462;-76
2022/01/24 01:29:45;;;;;;;18.35;13.18;;;;;;;6.00;100.00;103524.75;10498635;28;20479;-76
2022/01/24 01:35:11;;;;;;;18.25;13.77;;;;;;;5.96;100.00;103517.84;10501449;28;20040;-80
2022/01/24 01:40:39;;;;;;;24.65;13.63;;;;;;;5.93;100.00;103512.66;10485241;28;20032;-80
2022/01/24 01:56:10;;;;;;;21.73;15.70;;;;;;;5.92;100.00;103508.22;10500356;28;20037;-80
2022/01/24 02:01:11;;;;;;;24.33;16.15;;;;;;;5.86;100.00;103505.94;10466565;28;20040;-80
2022/01/24 02:06:12;;;;;;;22.20;14.88;;;;;;;5.88;100.00;103515.63;10482634;28;20035;-81
2022/01/24 02:11:17;;;;;;;25.42;14.25;;;;;;;5.90;100.00;103512.84;10500038;28;20048;-80
2022/01/24 02:16:29;;;;;;;22.08;14.15;;;;;;;5.88;100.00;103504.88;10500062;28;20029;-80
2022/01/24 02:26:42;;;;;;;28.05;18.90;;;;;;;5.90;100.00;103502.06;10500081;28;20087;-80
2022/01/24 02:31:45;;;;;;;21.33;16.88;;;;;;;5.93;100.00;103494.69;10508995;28;20539;-80
2022/01/24 02:36:46;;;;;;;28.02;16.77;;;;;;;5.91;100.00;103493.91;10501699;28;20410;-81
2022/01/24 02:52:29;;;;;;;25.10;19.92;;;;;;;5.76;100.00;103481.50;10498966;28;20052;-80
2022/01/24 02:57:29;;;;;;;26.15;17.08;;;;;;;5.75;100.00;103477.09;10502450;28;20060;-81
2022/01/24 03:02:30;;;;;;;25.92;18.88;;;;;;;5.76;100.00;103479.66;10503585;28;20111;-80
2022/01/24 03:07:32;;;;;;;25.85;17.02;;;;;;;5.73;100.00;103474.50;10507146;28;20418;-80
2022/01/24 03:12:44;;;;;;;31.17;17.20;;;;;;;5.76;100.00;103473.44;10502065;28;20032;-80
2022/01/24 03:17:44;;;;;;;25.35;18.38;;;;;;;5.76;100.00;103470.75;10500361;28;20356;-80
2022/01/24 03:22:46;;;;;;;24.10;18.42;;;;;;;5.77;100.00;103472.44;10499266;28;20036;-80
2022/01/24 03:27:47;;;;;;;24.25;19.45;;;;;;;5.78;100.00;103468.81;10498096;28;20039;-80
2022/01/24 03:32:47;;;;;;;26.77;18.17;;;;;;;5.79;100.00;103465.16;10498557;28;20365;-80
2022/01/24 03:37:48;;;;;;;34.90;23.02;;;;;;;5.77;100.00;103456.31;10497062;28;20037;-80
2022/01/24 03:42:48;;;;;;;30.52;20.17;;;;;;;5.77;100.00;103448.25;10503549;28;20044;-80
2022/01/24 03:48:09;;;;;;;33.38;20.25;;;;;;;5.75;100.00;103452.91;10508180;28;20044;-80
2022/01/24 03:53:09;;;;;;;25.83;19.88;;;;;;;5.72;100.00;103453.09;10473703;28;20469;-80
2022/01/24 03:58:09;;;;;;;32.60;21.10;;;;;;;5.74;100.00;103453.84;10503799;28;20036;-80
2022/01/24 04:03:10;;;;;;;34.28;23.40;;;;;;;5.73;100.00;103460.19;10470818;28;20033;-80
2022/01/24 04:08:11;;;;;;;41.22;28.00;;;;;;;5.69;100.00;103453.31;10504354;28;20025;-80
2022/01/24 04:23:28;;;;;;;40.13;26.60;;;;;;;5.85;100.00;103451.31;10504022;28;20047;-80
2022/01/24 04:28:29;;;;;;;37.53;26.25;;;;;;;5.88;100.00;103450.25;10470822;28;20037;-80
2022/01/24 04:33:29;;;;;;;33.28;25.15;;;;;;;5.83;100.00;103456.75;10486179;28;20038;-80
2022/01/24 04:38:29;;;;;;;28.88;23.13;;;;;;;5.82;100.00;103457.75;10520701;28;20032;-81
2022/01/24 04:59:10;;;;;;;31.40;24.98;;;;;;;5.69;100.00;103447.94;10514857;28;20508;-80
2022/01/24 05:04:11;;;;;;;30.70;22.73;;;;;;;5.67;100.00;103445.31;10501600;28;20036;-81
2022/01/24 05:09:11;;;;;;;34.53;24.00;;;;;;;5.66;100.00;103443.63;10501450;28;20039;-80
2022/01/24 05:24:49;;;;;;;34.63;24.77;;;;;;;5.63;100.00;103443.81;10501009;28;20507;-80
2022/01/24 05:29:50;;;;;;;34.88;22.20;;;;;;;5.62;100.00;103433.19;10501838;28;20032;-80
2022/01/24 05:34:51;;;;;;;31.33;21.88;;;;;;;5.54;100.00;103436.38;10502110;28;20039;-80
2022/01/24 05:39:51;;;;;;;35.15;22.23;;;;;;;5.56;100.00;103439.81;10500368;28;20123;-80
2022/01/24 05:44:52;;;;;;;28.58;22.17;;;;;;;5.46;100.00;103446.78;10504043;28;20127;-80
2022/01/24 05:49:53;;;;;;;33.92;21.40;;;;;;;5.48;100.00;103443.00;10468832;28;20476;-79
2022/01/24 05:54:54;;;;;;;29.58;23.05;;;;;;;5.49;100.00;103438.50;10483013;28;20036;-79
2022/01/24 05:59:55;;;;;;;39.00;23.08;;;;;;;5.45;100.00;103447.72;10482300;28;20044;-79
2022/01/24 06:04:55;;;;;;;29.38;21.80;;;;;;;5.35;100.00;103450.16;10483770;28;20043;-78
2022/01/24 06:09:55;;;;;;;33.25;23.80;;;;;;;5.26;100.00;103465.03;10507554;28;20032;-79
2022/01/24 06:14:56;;;;;;;31.33;21.70;;;;;;;5.33;100.00;103461.00;10505698;28;20034;-78
2022/01/24 06:19:58;;;;;;;33.50;22.60;;;;;;;5.40;100.00;103466.00;10466143;28;20040;-79
2022/01/24 06:24:58;;;;;;;28.77;21.67;;;;;;;5.43;100.00;103461.28;10497888;28;20051;-80
2022/01/24 06:29:59;;;;;;;35.42;24.58;;;;;;;5.31;100.00;103467.44;10498125;28;20162;-79
2022/01/24 06:34:59;;;;;;;29.77;21.67;;;;;;;5.38;100.00;103470.59;10499078;28;20539;-78
2022/01/24 06:40:00;;;;;;;39.63;23.73;;;;;;;5.34;100.00;103454.66;10498042;28;20085;-79
2022/01/24 06:45:00;;;;;;;29.25;22.25;;;;;;;5.40;100.00;103457.94;10507918;28;20072;-78
2022/01/24 06:50:00;;;;;;;38.15;27.02;;;;;;;5.32;100.00;103464.66;10482813;28;20437;-78
2022/01/24 06:55:01;;;;;;;38.72;27.30;;;;;;;5.25;100.00;103468.69;10499752;28;20032;-79
2022/01/24 07:00:01;;;;;;;37.47;26.02;;;;;;;5.28;100.00;103475.69;10481117;28;20036;-78
2022/01/24 07:05:02;;;;;;;38.00;26.55;;;;;;;5.26;100.00;103470.41;10497553;28;20033;-79
2022/01/24 07:10:03;;;;;;;49.08;27.80;;;;;;;5.35;100.00;103482.41;10480824;28;20045;-79
2022/01/24 07:15:09;;;;;;;41.78;27.45;;;;;;;5.31;100.00;103487.13;10464216;28;20476;-79
2022/01/24 07:20:10;;;;;;;45.05;27.38;;;;;;;5.34;100.00;103491.44;10499173;28;20471;-78
2022/01/24 07:25:10;;;;;;;56.42;31.95;;;;;;;5.22;100.00;103486.84;10502787;28;20129;-78
2022/01/24 07:30:12;;;;;;;48.10;27.05;;;;;;;5.27;100.00;103496.34;10506546;28;20082;-79
2022/01/24 07:35:12;;;;;;;47.30;28.88;;;;;;;5.31;100.00;103505.91;10504905;28;20045;-78
2022/01/24 07:40:13;;;;;;;60.15;34.30;;;;;;;5.31;100.00;103507.75;10504532;28;20044;-78
2022/01/24 07:45:13;;;;;;;51.10;33.05;;;;;;;5.31;100.00;103513.13;10505580;28;20044;-79
2022/01/24 07:50:18;;;;;;;59.10;38.85;;;;;;;5.16;100.00;103503.34;10504466;28;20467;-79
2022/01/24 07:55:19;;;;;;;65.47;39.25;;;;;;;5.16;100.00;103517.63;10487511;28;20131;-79
2022/01/24 08:00:20;;;;;;;75.22;39.78;;;;;;;5.18;100.00;103510.34;10506245;28;20174;-79
2022/01/24 08:05:20;;;;;;;60.25;37.90;;;;;;;5.16;100.00;103517.63;10487255;28;20045;-79
2022/01/24 08:10:20;;;;;;;60.17;37.58;;;;;;;5.21;100.00;103515.53;10503264;28;20585;-78
2022/01/24 08:15:21;;;;;;;51.22;32.80;;;;;;;5.24;100.00;103527.91;10505662;28;20119;-78
2022/01/24 08:20:22;;;;;;;74.00;42.28;;;;;;;5.22;100.00;103516.41;10504753;28;20537;-79
2022/01/24 08:25:23;;;;;;;62.35;40.83;;;;;;;5.17;100.00;103519.38;10520070;28;20038;-79
2022/01/24 08:30:23;;;;;;;58.17;37.60;;;;;;;5.11;100.00;103514.41;10522989;28;20047;-79
2022/01/24 08:35:24;;;;;;;51.95;35.83;;;;;;;5.01;100.00;103514.13;10488049;28;20028;-78
2022/01/24 08:40:27;;;;;;;58.58;38.60;;;;;;;5.05;100.00;103514.78;10487600;28;20040;-79
2022/01/24 08:50:50;;;;;;;45.72;31.23;;;;;;;4.99;100.00;103529.47;10503115;28;20052;-79
2022/01/24 08:55:53;;;;;;;60.65;34.70;;;;;;;5.16;100.00;103523.00;10502350;28;20045;-79
2022/01/24 09:00:53;;;;;;;54.38;33.80;;;;;;;5.29;100.00;103517.72;10485341;28;20028;-79
2022/01/24 09:05:55;;;;;;;51.38;33.22;;;;;;;5.26;100.00;103513.41;10484630;28;20037;-80
2022/01/24 09:10:55;;;;;;;48.20;34.10;;;;;;;5.32;100.00;103523.75;10503522;28;20035;-80
2022/01/24 09:15:57;;;;;;;56.25;36.60;;;;;;;5.24;100.00;103526.09;10501026;28;20039;-79
2022/01/24 09:20:58;;;;;;;58.78;39.67;;;;;;;5.11;100.00;103523.31;10501274;28;20047;-79
2022/01/24 09:25:58;;;;;;;54.90;35.38;;;;;;;5.06;100.00;103522.72;10484891;28;20356;-79
2022/01/24 09:30:59;;;;;;;41.90;29.30;;;;;;;5.11;100.00;103531.38;10501138;28;20093;-79
2022/01/24 09:36:00;;;;;;;45.22;31.05;;;;;;;5.11;100.00;103533.22;10501991;28;20485;-79
2022/01/24 09:41:03;;;;;;;45.83;30.95;;;;;;;5.09;100.00;103532.44;10503816;28;20456;-79
2022/01/24 09:46:03;;;;;;;45.50;30.25;;;;;;;5.17;100.00;103535.50;10500803;28;20048;-79
2022/01/24 09:51:04;;;;;;;40.88;28.25;;;;;;;5.08;99.00;103536.94;10503429;28;20053;-78
2022/01/24 09:56:04;;;;;;;46.30;29.13;;;;;;;5.17;100.00;103535.50;10501277;28;20036;-78
2022/01/24 10:01:06;;;;;;;44.08;27.75;;;;;;;5.24;100.00;103538.66;10499583;28;20089;-79
2022/01/24 10:06:09;;;;;;;45.95;30.65;;;;;;;5.37;100.00;103542.28;10466863;28;20036;-78
2022/01/24 10:11:10;;;;;;;41.00;28.48;;;;;;;5.36;100.00;103546.81;10502747;28;20033;-79
2022/01/24 10:21:40;;;;;;;37.08;27.30;;;;;;;5.37;100.00;103539.59;10498253;28;20464;-79
2022/01/24 10:26:41;;;;;;;46.35;27.05;;;;;;;5.34;100.00;103543.34;10498663;28;20376;-79
2022/01/24 10:31:46;;;;;;;42.88;28.42;;;;;;;5.32;100.00;103549.75;10481655;28;20048;-79
2022/01/24 10:36:54;;;;;;;43.33;30.30;;;;;;;5.47;100.00;103545.25;10498244;28;20081;-78
2022/01/24 10:47:31;;;;;;;56.20;31.50;;;;;;;5.55;100.00;103545.59;10498581;28;20085;-78
2022/01/24 10:52:33;;;;;;;44.70;28.83;;;;;;;5.47;98.43;103538.03;10497783;28;20049;-79
2022/01/24 10:57:33;;;;;;;52.58;31.45;;;;;;;5.51;100.00;103530.63;10481232;28;20475;-79
2022/01/24 11:02:35;;;;;;;52.10;31.98;;;;;;;5.67;100.00;103536.72;10480889;28;20059;-79
2022/01/24 11:07:56;;;;;;;50.22;32.50;;;;;;;5.63;100.00;103521.78;10498986;28;20047;-78
2022/01/24 11:12:56;;;;;;;50.05;31.02;;;;;;;5.76;100.00;103516.44;10497633;28;20029;-78
2022/01/24 11:17:58;;;;;;;53.15;34.15;;;;;;;5.78;100.00;103514.53;10496858;28;20036;-79
2022/01/24 11:23:01;;;;;;;44.75;30.80;;;;;;;5.81;100.00;103507.13;10481022;28;20059;-79
2022/01/24 11:28:02;;;;;;;48.42;31.27;;;;;;;5.83;100.00;103502.47;10497852;28;20037;-79
2022/01/24 11:33:14;;;;;;;44.83;32.80;;;;;;;5.74;99.39;103497.75;10497221;28;20388;-78
2022/01/24 11:38:37;;;;;;;49.85;31.88;;;;;;;5.70;98.94;103504.28;10481470;28;20035;-79
2022/01/24 11:43:40;;;;;;;47.20;33.55;;;;;;;5.77;100.00;103504.72;10481887;28;20035;-79
2022/01/24 11:48:41;;;;;;;52.40;34.92;;;;;;;5.82;100.00;103499.91;10496977;28;20048;-79
2022/01/24 11:53:45;;;;;;;53.03;31.52;;;;;;;5.87;100.00;103491.53;10480178;28;20480;-79
2022/01/24 11:58:46;;;;;;;52.33;30.00;;;;;;;6.03;100.00;103490.44;10472871;28;20388;-78
2022/01/24 12:03:51;;;;;;;59.08;36.88;;;;;;;5.98;100.00;103486.31;10510508;28;20033;-78
2022/01/24 12:09:00;;;;;;;47.65;32.47;;;;;;;5.83;99.85;103489.03;10499395;28;20036;-79
2022/01/24 12:14:13;;;;;;;55.53;35.42;;;;;;;5.76;97.05;103484.19;10484093;28;20036;-78
2022/01/24 12:19:14;;;;;;;48.78;31.65;;;;;;;5.91;100.00;103479.63;10512446;28;20033;-79
2022/01/24 12:24:14;;;;;;;52.60;33.13;;;;;;;6.20;100.00;103489.28;10504506;28;20485;-79
2022/01/24 12:29:17;;;;;;;50.47;30.45;;;;;;;6.43;100.00;103478.75;10486787;28;20386;-79
2022/01/24 12:34:40;;;;;;;45.95;31.08;;;;;;;6.54;100.00;103468.09;10471796;28;20131;-79
2022/01/24 12:39:49;;;;;;;51.60;33.95;;;;;;;6.63;100.00;103470.13;10503224;28;20036;-79
2022/01/24 12:49:54;;;;;;;62.00;32.97;;;;;;;6.63;100.00;103471.97;10502913;28;20492;-79
2022/01/24 12:54:57;;;;;;;48.45;33.58;;;;;;;6.48;100.00;103471.22;10503007;28;20048;-79
2022/01/24 13:00:01;;;;;;;52.65;33.33;;;;;;;6.28;100.00;103459.13;10485741;28;20021;-79
2022/01/24 13:05:15;;;;;;;55.60;32.35;;;;;;;6.35;100.00;103460.47;10485892;28;20024;-79
2022/01/24 13:10:17;;;;;;;53.72;31.30;;;;;;;6.49;100.00;103451.41;10486341;28;20060;-78
2022/01/24 13:15:25;;;;;;;54.47;35.17;;;;;;;6.55;100.00;103442.03;10486689;28;20040;-79
2022/01/24 13:20:58;;;;;;;50.40;35.80;;;;;;;6.49;100.00;103433.41;10488098;28;20056;-79
2022/01/24 13:25:46;;;;;;;50.42;32.13;;;;;;;6.52;100.00;103427.81;10500611;28;20098;-79
2022/01/24 13:30:49;;;;;;;56.90;34.55;;;;;;;6.54;100.00;103430.41;10502519;28;20198;-79
2022/01/24 13:35:51;;;;;;;51.55;31.67;;;;;;;6.43;100.00;103427.63;10488105;28;20391;-79
2022/01/24 13:41:10;;;;;;;66.82;35.47;;;;;;;6.14;100.00;103426.97;10505066;28;20032;-79
2022/01/24 13:46:22;;;;;;;53.08;34.45;;;;;;;6.16;100.00;103427.69;10469953;28;20048;-79
2022/01/24 13:51:39;;;;;;;53.05;34.97;;;;;;;6.09;100.00;103419.19;10501630;28;20048;-79
2022/01/24 13:56:53;;;;;;;66.47;37.87;;;;;;;5.98;99.72;103422.63;10485409;28;20048;-79
2022/01/24 14:02:02;;;;;;;62.42;37.95;;;;;;;5.90;100.00;103422.25;10470155;28;20120;-79
2022/01/24 14:07:06;;;;;;;52.80;34.83;;;;;;;5.78;96.55;103418.59;10500058;28;20052;-79
2022/01/24 14:12:10;;;;;;;65.90;35.92;;;;;;;5.64;100.00;103417.78;10482446;28;20059;-79
2022/01/24 14:22:16;;;;;;;63.63;36.47;;;;;;;5.77;100.00;103416.84;10498912;28;20084;-79
2022/01/24 14:27:36;;;;;;;61.75;37.30;;;;;;;5.68;99.71;103412.13;10498950;28;20032;-79
2022/01/24 14:32:45;;;;;;;57.05;35.25;;;;;;;5.66;100.00;103411.34;10500952;28;20051;-78
2022/01/24 14:37:53;;;;;;;55.33;35.75;;;;;;;5.76;100.00;103420.50;10488486;28;20428;-78
2022/01/24 14:44:52;;;;;;;52.00;38.78;;;;;;;5.63;100.00;103418.75;10486106;28;20061;-78
2022/01/24 14:48:13;;;;;;;57.75;32.92;;;;;;;5.31;97.03;103419.94;10486712;28;20053;-79
2022/01/24 14:53:16;;;;;;;48.63;33.00;;;;;;;5.21;99.62;103413.47;10487142;28;20464;-79
2022/01/24 14:58:16;;;;;;;51.63;30.13;;;;;;;5.28;100.00;103406.72;10500035;28;20376;-79
2022/01/24 15:03:17;;;;;;;57.65;33.17;;;;;;;5.15;96.02;103408.47;10499899;28;20046;-78
2022/01/24 15:08:17;;;;;;;61.15;33.92;;;;;;;5.01;97.56;103411.19;10482145;28;20384;-79
2022/01/24 15:13:21;;;;;;;48.00;27.88;;;;;;;5.09;99.69;103403.50;10480849;28;20071;-79
2022/01/24 15:24:12;;;;;;;47.08;32.33;;;;;;;4.98;100.00;103412.28;10483536;28;20037;-78
2022/01/24 15:29:12;;;;;;;47.33;31.70;;;;;;;5.01;100.00;103408.50;10488595;28;20033;-78
2022/01/24 15:34:14;;;;;;;46.28;31.30;;;;;;;5.03;100.00;103418.19;10502375;28;20434;-78
2022/01/24 15:39:14;;;;;;;61.70;32.83;;;;;;;5.13;100.00;103407.72;10484324;28;20021;-78
2022/01/24 15:49:27;;;;;;;55.08;31.33;;;;;;;4.89;100.00;103421.78;10508618;28;20056;-78
2022/01/24 15:54:28;;;;;;;55.90;30.38;;;;;;;4.76;99.41;103425.34;10514059;28;20044;-78
2022/01/24 15:59:28;;;;;;;45.90;32.53;;;;;;;4.82;100.00;103436.56;10489721;28;20043;-79
2022/01/24 16:04:29;;;;;;;41.97;27.13;;;;;;;4.73;100.00;103445.19;10488061;28;20071;-79
2022/01/24 16:09:29;;;;;;;43.28;30.25;;;;;;;4.64;100.00;103445.75;10504236;28;20107;-78
2022/01/24 16:14:30;;;;;;;49.50;29.73;;;;;;;4.65;100.00;103450.16;10470919;28;20032;-78
2022/01/24 16:19:35;;;;;;;46.67;32.08;;;;;;;4.60;98.72;103449.59;10505226;28;20037;-78
2022/01/24 16:29:37;;;;;;;45.50;31.23;;;;;;;4.53;100.00;103453.59;10503371;28;20037;-79
2022/01/24 16:34:39;;;;;;;43.35;30.02;;;;;;;4.50;100.00;103460.06;10503406;28;20468;-78
2022/01/24 16:39:39;;;;;;;48.90;30.17;;;;;;;4.42;99.11;103465.88;10503561;28;20032;-78
2022/01/24 16:44:55;;;;;;;47.83;32.30;;;;;;;4.54;100.00;103472.31;10502091;28;20467;-78
2022/01/24 16:49:56;;;;;;;48.80;29.97;;;;;;;4.62;100.00;103474.50;10503961;28;20052;-79
2022/01/24 16:54:56;;;;;;;46.53;30.48;;;;;;;4.47;100.00;103475.44;10504006;28;20029;-78
2022/01/24 16:59:57;;;;;;;43.15;30.52;;;;;;;4.33;97.84;103487.03;10501249;28;20472;-79
2022/01/24 17:04:58;;;;;;;48.25;33.35;;;;;;;4.39;100.00;103473.25;10512905;28;20453;-79
2022/01/24 17:09:58;;;;;;;55.28;33.95;;;;;;;4.46;100.00;103468.38;10485268;28;20116;-79
2022/01/24 17:15:04;;;;;;;54.78;34.38;;;;;;;4.42;100.00;103468.56;10485097;28;20480;-78
2022/01/24 17:20:05;;;;;;;55.90;34.83;;;;;;;4.50;100.00;103477.94;10487073;28;20060;-78
2022/01/24 17:25:06;;;;;;;48.75;30.50;;;;;;;4.57;100.00;103477.50;10486255;28;20040;-78
2022/01/24 17:30:08;;;;;;;51.72;34.88;;;;;;;4.60;100.00;103488.03;10502238;28;20037;-80
2022/01/24 17:35:09;;;;;;;51.63;33.05;;;;;;;4.60;100.00;103479.13;10501884;28;20029;-78
2022/01/24 17:40:11;;;;;;;45.35;32.05;;;;;;;4.48;100.00;103480.75;10500720;28;20479;-78
2022/01/24 17:45:12;;;;;;;52.65;33.42;;;;;;;4.19;98.37;103477.16;10500839;28;20066;-79
2022/01/24 17:50:13;;;;;;;58.78;36.33;;;;;;;4.28;100.00;103481.09;10499774;28;20064;-78
2022/01/24 17:55:14;;;;;;;53.55;33.92;;;;;;;4.33;100.00;103495.94;10486777;28;20091;-78
2022/01/24 18:00:16;;;;;;;57.30;33.75;;;;;;;4.33;100.00;103484.34;10483716;28;20163;-78
2022/01/24 18:05:17;;;;;;;49.35;33.92;;;;;;;4.33;100.00;103495.94;10485121;28;20051;-78
2022/01/24 18:10:20;;;;;;;55.38;35.45;;;;;;;4.28;100.00;103489.16;10501334;28;20468;-79
2022/01/24 18:15:22;;;;;;;51.75;32.15;;;;;;;4.25;100.00;103486.66;10508987;28;20029;-78
2022/01/24 18:20:23;;;;;;;55.72;35.13;;;;;;;4.27;100.00;103495.44;10486956;28;20078;-78
2022/01/24 18:25:23;;;;;;;49.90;34.47;;;;;;;4.12;100.00;103502.63;10501400;28;20113;-78
2022/01/24 18:30:24;;;;;;;54.38;36.03;;;;;;;4.05;98.67;103507.47;10498984;28;20039;-79
2022/01/24 18:35:25;;;;;;;53.85;33.13;;;;;;;3.90;96.31;103511.91;10500277;28;20040;-78
2022/01/24 18:40:26;;;;;;;57.92;33.10;;;;;;;3.91;98.95;103510.94;10483304;28;20120;-78
2022/01/24 18:45:26;;;;;;;57.88;35.83;;;;;;;4.00;100.00;103504.19;10499703;28;20448;-78
2022/01/24 18:50:27;;;;;;;55.33;36.75;;;;;;;4.06;100.00;103502.97;10481290;28;20063;-78
2022/01/24 18:55:27;;;;;;;58.75;40.25;;;;;;;4.00;98.19;103503.34;10499991;28;20127;-78
2022/01/24 19:00:28;;;;;;;52.63;33.92;;;;;;;4.14;100.00;103514.09;10498397;28;20037;-78
2022/01/24 19:05:30;;;;;;;59.05;34.47;;;;;;;4.20;100.00;103509.22;10483973;28;20052;-78
2022/01/24 19:10:31;;;;;;;53.35;35.92;;;;;;;4.22;100.00;103521.72;10509368;28;20044;-78
2022/01/24 19:15:32;;;;;;;57.92;35.83;;;;;;;4.27;100.00;103514.22;10519966;28;20024;-78
2022/01/24 19:25:58;;;;;;;61.03;36.33;;;;;;;4.15;100.00;103510.47;10507943;28;20040;-79
2022/01/24 19:30:58;;;;;;;57.72;35.47;;;;;;;4.22;100.00;103511.84;10506636;28;20460;-78
2022/01/24 19:35:59;;;;;;;57.47;35.67;;;;;;;4.19;100.00;103520.06;10490701;28;20025;-78
2022/01/24 19:40:59;;;;;;;55.35;35.08;;;;;;;4.18;100.00;103508.47;10507119;28;20047;-79
2022/01/24 19:46:00;;;;;;;52.97;35.88;;;;;;;4.25;100.00;103530.44;10489206;28;20491;-79
2022/01/24 19:51:04;;;;;;;50.35;34.00;;;;;;;4.25;100.00;103525.06;10507854;28;20550;-79
2022/01/24 19:56:22;;;;;;;53.47;35.92;;;;;;;4.29;100.00;103531.97;10489432;28;20035;-76
2022/01/24 20:01:23;;;;;;;47.17;33.17;;;;;;;4.28;100.00;103542.78;10505475;28;20036;-79
2022/01/24 20:06:24;;;;;;;46.70;31.75;;;;;;;4.27;100.00;103539.22;10504815;28;20457;-79
2022/01/24 20:11:24;;;;;;;49.15;32.50;;;;;;;4.25;100.00;103541.16;10506067;28;20082;-76
2022/01/24 20:16:25;;;;;;;57.65;33.40;;;;;;;4.23;100.00;103548.41;10489017;28;20040;-78
2022/01/24 20:21:26;;;;;;;44.90;31.65;;;;;;;4.26;100.00;103558.09;10505254;28;20036;-79
2022/01/24 20:26:30;;;;;;;50.85;34.85;;;;;;;4.27;100.00;103555.31;10506146;28;20059;-78
2022/01/24 20:31:32;;;;;;;50.17;33.28;;;;;;;4.31;100.00;103556.03;10506321;28;20052;-79
2022/01/24 20:36:32;;;;;;;44.22;29.83;;;;;;;4.12;100.00;103550.88;10470872;28;20055;-79
2022/01/24 20:41:33;;;;;;;46.97;32.80;;;;;;;3.99;100.00;103539.13;10497506;28;20035;-79
2022/01/24 20:46:33;;;;;;;48.30;33.72;;;;;;;3.97;100.00;103526.69;10506722;28;20140;-79
2022/01/24 20:51:36;;;;;;;46.80;33.28;;;;;;;3.93;100.00;103537.69;10503967;28;20388;-78
2022/01/24 20:56:38;;;;;;;44.30;29.23;;;;;;;3.72;96.37;103537.09;10502543;28;20460;-78
2022/01/24 21:01:38;;;;;;;44.35;31.83;;;;;;;3.79;100.00;103529.56;10502730;28;20047;-78
2022/01/24 21:06:38;;;;;;;47.70;31.98;;;;;;;3.66;98.74;103526.72;10502961;28;20037;-78
2022/01/24 21:11:42;;;;;;;49.50;31.05;;;;;;;3.58;97.67;103518.28;10502107;28;20115;-78
2022/01/24 21:16:43;;;;;;;47.58;34.10;;;;;;;3.69;99.55;103513.16;10486240;28;20058;-78
2022/01/24 21:21:44;;;;;;;41.22;30.25;;;;;;;3.82;100.00;103519.53;10503223;28;20485;-78
2022/01/24 21:26:45;;;;;;;45.80;28.88;;;;;;;3.83;100.00;103531.09;10487755;28;20053;-79
2022/01/24 21:31:46;;;;;;;43.78;30.63;;;;;;;3.84;100.00;103531.03;10503115;28;20071;-79
2022/01/24 21:36:46;;;;;;;49.47;28.45;;;;;;;3.81;100.00;103533.03;10502443;28;20036;-79
2022/01/24 21:41:48;;;;;;;46.03;28.15;;;;;;;3.86;100.00;103534.50;10469352;28;20032;-79
2022/01/24 21:46:48;;;;;;;48.63;28.95;;;;;;;3.71;100.00;103530.03;10499891;28;20048;-78
2022/01/24 21:51:49;;;;;;;43.08;28.35;;;;;;;3.65;100.00;103538.41;10501695;28;20068;-79
2022/01/24 21:56:50;;;;;;;37.47;27.45;;;;;;;3.52;98.97;103534.69;10502371;28;20399;-79
2022/01/24 22:01:51;;;;;;;41.05;27.52;;;;;;;3.47;99.29;103530.44;10500776;28;20035;-79
2022/01/24 22:06:53;;;;;;;49.53;30.40;;;;;;;3.45;98.46;103524.31;10483147;28;20036;-79
2022/01/24 22:11:53;;;;;;;39.90;28.20;;;;;;;3.46;98.50;103539.44;10501130;28;20040;-79
2022/01/24 22:16:54;;;;;;;45.58;31.13;;;;;;;3.40;98.79;103515.69;10482403;28;20036;-79
2022/01/24 22:21:54;;;;;;;49.30;32.08;;;;;;;3.37;99.54;103515.84;10465397;28;20127;-79
2022/01/24 22:26:57;;;;;;;43.17;31.15;;;;;;;3.40;100.00;103518.34;10500212;28;20111;-79
2022/01/24 22:31:58;;;;;;;41.92;30.73;;;;;;;3.48;100.00;103517.94;10482846;28;20392;-79
2022/01/24 22:36:58;;;;;;;54.95;34.45;;;;;;;3.56;100.00;103513.00;10481769;28;20043;-80
2022/01/24 22:42:05;;;;;;;40.95;31.10;;;;;;;3.58;100.00;103513.78;10484683;28;20048;-79
2022/01/24 22:47:05;;;;;;;43.85;32.88;;;;;;;3.62;100.00;103517.16;10484355;28;20056;-78
2022/01/24 22:52:06;;;;;;;46.67;34.53;;;;;;;3.66;100.00;103524.03;10493717;28;20040;-79
2022/01/24 22:57:07;;;;;;;42.72;31.10;;;;;;;3.69;100.00;103527.41;10523949;28;20040;-79
2022/01/24 23:02:08;;;;;;;52.20;35.05;;;;;;;3.77;100.00;103527.00;10502806;28;20040;-79
2022/01/24 23:07:09;;;;;;;52.25;31.83;;;;;;;3.82;100.00;103524.03;10493437;28;20044;-79
2022/01/24 23:12:12;;;;;;;46.33;32.92;;;;;;;3.84;100.00;103528.34;10484088;28;20043;-79
2022/01/24 23:22:54;;;;;;;50.67;33.53;;;;;;;3.83;100.00;103533.78;10435790;28;20040;-80
2022/01/24 23:28:06;;;;;;;43.55;34.03;;;;;;;3.82;100.00;103527.56;10497432;28;20028;-79
2022/01/24 23:33:20;;;;;;;51.65;31.63;;;;;;;3.84;100.00;103519.47;10483478;28;20037;-79
2022/01/24 23:44:19;;;;;;;47.13;34.53;;;;;;;3.80;100.00;103512.53;10447512;28;20048;-79
2022/01/24 23:49:20;;;;;;;51.42;34.80;;;;;;;3.80;100.00;103515.19;10497969;28;20052;-80
2022/01/24 23:54:20;;;;;;;53.65;37.63;;;;;;;3.80;100.00;103507.16;10498244;28;20109;-79
